createdAt,value
2022-11-05T00:00:51.938Z,10.13
2022-11-05T00:03:56.973Z,9.60
2022-11-05T00:06:54.702Z,13.70
2022-11-05T00:09:41.942Z,12.20
2022-11-05T00:12:39.755Z,10.83
2022-11-05T00:15:44.945Z,10.07
2022-11-05T00:18:24.008Z,9.63
2022-11-05T00:21:10.948Z,11.67
2022-11-05T00:24:14.972Z,11.73
2022-11-05T00:26:54.591Z,10.57
2022-11-05T00:29:40.958Z,10.53
2022-11-05T00:32:20.625Z,12.40
2022-11-05T00:35:06.923Z,13.77
2022-11-05T00:37:50.030Z,13.73
2022-11-05T00:40:35.964Z,13.80
2022-11-05T00:43:34.639Z,11.97
2022-11-05T00:46:21.962Z,13.30
2022-11-05T00:49:26.958Z,10.33
2022-11-05T00:52:24.717Z,9.47
2022-11-05T00:55:10.973Z,9.53
2022-11-05T00:57:50.061Z,9.10
2022-11-05T01:00:38.949Z,12.67
2022-11-05T01:03:22.068Z,12.57
2022-11-05T01:06:20.951Z,12.13
2022-11-05T01:09:08.986Z,10.67
2022-11-05T01:11:48.665Z,9.40
2022-11-05T01:14:34.960Z,14.13
2022-11-05T01:17:14.676Z,14.50
2022-11-05T01:20:00.962Z,10.73
2022-11-05T01:22:40.631Z,14.40
2022-11-05T01:25:27.965Z,16.97
2022-11-05T01:28:08.850Z,13.83
2022-11-05T01:30:54.964Z,13.93
2022-11-05T01:33:34.643Z,16.13
2022-11-05T01:36:21.972Z,15.60
2022-11-05T01:39:09.978Z,16.80
2022-11-05T01:41:49.038Z,15.20
2022-11-05T01:45:04.974Z,12.90
2022-11-05T01:48:14.306Z,15.70
2022-11-05T01:51:10.996Z,10.67
2022-11-05T01:54:05.991Z,9.43
2022-11-05T01:57:02.209Z,13.60
2022-11-05T01:59:56.986Z,12.53
2022-11-05T02:02:46.680Z,11.03
2022-11-05T02:05:33.982Z,13.13
2022-11-05T02:08:33.812Z,12.40
2022-11-05T02:11:22.782Z,10.27
2022-11-05T02:14:10.006Z,11.03
2022-11-05T02:17:10.066Z,8.90
2022-11-05T02:20:41.999Z,7.90
2022-11-05T02:23:39.055Z,7.83
2022-11-05T02:26:58.016Z,10.53
2022-11-05T02:30:18.018Z,12.47
2022-11-05T02:33:29.948Z,8.73
2022-11-05T02:36:46.007Z,11.20
2022-11-05T02:40:01.045Z,12.33
2022-11-05T02:43:07.164Z,8.60
2022-11-05T02:46:16.021Z,11.70
2022-11-05T02:49:12.011Z,12.77
2022-11-05T02:52:04.761Z,10.43
2022-11-05T02:55:06.006Z,12.13
2022-11-05T02:57:47.332Z,14.57
2022-11-05T03:00:57.015Z,13.53
2022-11-05T03:03:46.553Z,13.93
2022-11-05T03:07:15.052Z,10.00
2022-11-05T03:10:13.010Z,11.77
2022-11-05T03:13:11.351Z,13.97
2022-11-05T03:16:08.021Z,16.53
2022-11-05T03:19:21.015Z,18.17
2022-11-05T03:22:11.178Z,17.97
2022-11-05T03:25:08.046Z,18.40
2022-11-05T03:27:54.970Z,17.67
2022-11-05T03:30:43.017Z,17.17
2022-11-05T03:33:30.136Z,17.93
2022-11-05T03:36:26.009Z,18.20
2022-11-05T03:39:18.042Z,16.33
2022-11-05T03:42:00.123Z,16.20
2022-11-05T03:44:55.039Z,15.37
2022-11-05T03:47:43.142Z,16.20
2022-11-05T03:50:55.042Z,16.50
2022-11-05T03:53:42.086Z,16.73
2022-11-05T03:56:52.016Z,17.93
2022-11-05T03:59:40.054Z,17.17
2022-11-05T04:02:24.861Z,17.10
2022-11-05T04:05:11.042Z,15.87
2022-11-05T04:08:14.107Z,14.47
2022-11-05T04:11:18.055Z,17.13
2022-11-05T04:13:57.719Z,15.90
2022-11-05T04:17:02.060Z,17.43
2022-11-05T04:20:09.050Z,14.93
2022-11-05T04:23:06.632Z,14.57
2022-11-05T04:25:52.051Z,17.97
2022-11-05T04:28:51.076Z,19.53
2022-11-05T04:31:37.057Z,20.70
2022-11-05T04:34:18.012Z,21.17
2022-11-05T04:37:04.056Z,20.37
2022-11-05T04:39:50.051Z,21.60
2022-11-05T04:42:29.751Z,21.43
2022-11-05T04:45:17.308Z,21.13
2022-11-05T04:47:56.768Z,17.67
2022-11-05T04:50:45.062Z,21.17
2022-11-05T04:53:24.765Z,22.30
2022-11-05T04:56:33.081Z,19.13
2022-11-05T04:59:12.802Z,20.93
2022-11-05T05:01:59.161Z,21.40
2022-11-05T05:04:38.728Z,22.40
2022-11-05T05:07:25.087Z,21.20
2022-11-05T05:10:14.089Z,22.07
2022-11-05T05:12:53.133Z,22.23
2022-11-05T05:15:39.088Z,21.00
2022-11-05T05:18:18.135Z,22.87
2022-11-05T05:21:24.077Z,20.67
2022-11-05T05:24:03.141Z,21.93
2022-11-05T05:26:56.306Z,21.77
2022-11-05T05:29:35.131Z,23.23
2022-11-05T05:32:21.106Z,21.37
2022-11-05T05:35:00.204Z,20.53
2022-11-05T05:37:46.078Z,19.10
2022-11-05T05:40:32.072Z,16.83
2022-11-05T05:43:12.089Z,16.33
2022-11-05T05:45:58.091Z,15.30
2022-11-05T05:48:37.821Z,16.07
2022-11-05T05:51:25.097Z,14.37
2022-11-05T05:54:05.046Z,16.47
2022-11-05T05:56:51.090Z,13.93
2022-11-05T05:59:30.760Z,16.10
2022-11-05T06:02:18.161Z,17.90
2022-11-05T06:05:04.096Z,17.57
2022-11-05T06:07:43.186Z,15.13
2022-11-05T06:10:31.108Z,15.57
2022-11-05T06:13:10.428Z,19.30
2022-11-05T06:15:56.108Z,18.67
2022-11-05T06:18:37.234Z,18.03
2022-11-05T06:21:24.113Z,19.77
2022-11-05T06:24:03.204Z,18.60
2022-11-05T06:26:51.118Z,19.33
2022-11-05T06:29:30.173Z,19.23
2022-11-05T06:32:16.128Z,16.00
2022-11-05T06:35:02.150Z,19.77
2022-11-05T06:37:42.197Z,18.13
2022-11-05T06:40:28.180Z,16.57
2022-11-05T06:43:08.142Z,16.70
2022-11-05T06:45:54.102Z,14.37
2022-11-05T06:48:34.522Z,14.20
2022-11-05T06:51:21.104Z,15.00
2022-11-05T06:54:00.803Z,16.97
2022-11-05T06:56:47.124Z,15.20
2022-11-05T06:59:26.814Z,15.47
2022-11-05T07:02:13.218Z,16.67
2022-11-05T07:04:59.138Z,15.17
2022-11-05T07:07:39.244Z,16.13
2022-11-05T07:10:26.138Z,13.70
2022-11-05T07:13:08.407Z,16.10
2022-11-05T07:15:55.121Z,16.93
2022-11-05T07:18:34.202Z,16.80
2022-11-05T07:21:21.137Z,15.27
2022-11-05T07:24:00.183Z,17.27
2022-11-05T07:26:46.133Z,19.10
2022-11-05T07:29:25.175Z,16.57
2022-11-05T07:32:12.146Z,16.90
2022-11-05T07:34:58.138Z,15.47
2022-11-05T07:37:50.416Z,16.63
2022-11-05T07:40:40.193Z,17.50
2022-11-05T07:43:19.806Z,13.17
2022-11-05T07:46:09.883Z,13.03
2022-11-05T07:48:52.784Z,14.13
2022-11-05T07:51:39.152Z,14.17
2022-11-05T07:54:18.819Z,13.10
2022-11-05T07:57:05.146Z,16.50
2022-11-05T07:59:44.909Z,15.03
2022-11-05T08:02:31.318Z,16.10
2022-11-05T08:05:17.347Z,17.33
2022-11-05T08:07:56.471Z,16.60
2022-11-05T08:10:44.151Z,16.17
2022-11-05T08:13:24.460Z,17.20
2022-11-05T08:16:12.146Z,17.03
2022-11-05T08:18:51.238Z,14.77
2022-11-05T08:21:37.178Z,16.60
2022-11-05T08:24:16.250Z,16.67
2022-11-05T08:27:02.170Z,15.53
2022-11-05T08:29:41.229Z,15.40
2022-11-05T08:32:27.180Z,15.17
2022-11-05T08:35:13.156Z,15.10
2022-11-05T08:38:02.313Z,15.43
2022-11-05T08:40:49.190Z,17.40
2022-11-05T08:43:29.054Z,17.77
2022-11-05T08:46:15.171Z,16.23
2022-11-05T08:48:54.837Z,16.07
2022-11-05T08:51:41.185Z,14.20
2022-11-05T08:54:27.812Z,15.70
2022-11-05T08:57:07.184Z,15.87
2022-11-05T08:59:46.860Z,17.63
2022-11-05T09:02:33.255Z,17.77
2022-11-05T09:05:19.187Z,18.13
2022-11-05T09:08:05.270Z,16.97
2022-11-05T09:10:45.226Z,16.77
2022-11-05T09:13:25.915Z,15.47
2022-11-05T09:16:13.173Z,15.57
2022-11-05T09:19:01.496Z,16.97
2022-11-05T09:21:40.169Z,16.43
2022-11-05T09:24:19.877Z,16.30
2022-11-05T09:27:06.190Z,17.17
2022-11-05T09:29:45.958Z,17.07
2022-11-05T09:32:32.210Z,17.53
2022-11-05T09:35:18.177Z,17.50
2022-11-05T09:38:00.962Z,17.00
2022-11-05T09:41:06.204Z,17.10
2022-11-05T09:44:01.252Z,16.20
2022-11-05T09:47:01.198Z,15.23
2022-11-05T09:50:04.213Z,16.97
2022-11-05T09:52:44.676Z,14.87
2022-11-05T09:55:50.227Z,15.07
2022-11-05T09:58:44.849Z,14.67
2022-11-05T10:01:42.320Z,14.03
2022-11-05T10:04:25.445Z,13.37
2022-11-05T10:07:20.205Z,12.50
2022-11-05T10:10:15.244Z,14.00
2022-11-05T10:13:00.687Z,14.37
2022-11-05T10:15:59.214Z,14.20
2022-11-05T10:18:44.271Z,15.17
2022-11-05T10:21:59.544Z,14.87
2022-11-05T10:24:29.313Z,14.60
2022-11-05T10:27:31.234Z,14.40
2022-11-05T10:30:18.236Z,12.80
2022-11-05T10:33:02.361Z,14.27
2022-11-05T10:36:00.221Z,15.40
2022-11-05T10:38:39.958Z,14.90
2022-11-05T10:42:07.242Z,15.40
2022-11-05T10:45:24.225Z,14.63
2022-11-05T10:48:43.467Z,14.20
2022-11-05T10:51:31.224Z,11.30
2022-11-05T10:54:21.308Z,11.93
2022-11-05T10:57:35.287Z,10.73
2022-11-05T11:00:27.236Z,10.23
2022-11-05T11:03:29.606Z,8.67
2022-11-05T11:06:45.220Z,7.87
2022-11-05T11:09:34.694Z,9.57
2022-11-05T11:12:47.261Z,9.07
2022-11-05T11:15:41.258Z,8.43
2022-11-05T11:18:48.371Z,8.10
2022-11-05T11:21:37.280Z,7.70
2022-11-05T11:24:33.296Z,7.80
2022-11-05T11:27:36.252Z,7.67
2022-11-05T11:30:32.474Z,7.77
2022-11-05T11:33:12.803Z,6.70
2022-11-05T11:36:00.289Z,7.27
2022-11-05T11:38:41.254Z,6.47
2022-11-05T11:41:48.303Z,6.17
2022-11-05T11:44:41.476Z,7.17
2022-11-05T11:47:31.350Z,5.73
2022-11-05T11:50:48.298Z,5.70
2022-11-05T11:53:27.582Z,4.60
2022-11-05T11:56:27.639Z,4.87
2022-11-05T11:59:46.829Z,4.60
2022-11-05T12:03:02.113Z,3.87
2022-11-05T12:05:59.329Z,4.00
2022-11-05T12:09:08.399Z,4.30
2022-11-05T12:12:06.294Z,3.80
2022-11-05T12:15:24.327Z,4.07
2022-11-05T12:18:46.563Z,3.77
2022-11-05T12:22:16.327Z,3.63
2022-11-05T12:25:16.343Z,3.97
2022-11-05T12:29:12.339Z,3.90
2022-11-05T12:32:30.362Z,3.63
2022-11-05T12:35:28.504Z,3.40
2022-11-05T12:38:55.725Z,3.57
2022-11-05T12:41:55.324Z,4.30
2022-11-05T12:45:21.318Z,3.60
2022-11-05T12:48:39.312Z,3.57
2022-11-05T12:51:42.367Z,2.97
2022-11-05T12:55:15.324Z,3.00
2022-11-05T12:58:23.308Z,3.23
2022-11-05T13:01:24.394Z,3.37
2022-11-05T13:04:22.753Z,3.60
2022-11-05T13:07:10.335Z,3.17
2022-11-05T13:10:06.353Z,3.10
2022-11-05T13:12:57.368Z,4.10
2022-11-05T13:15:57.287Z,3.13
2022-11-05T13:18:53.404Z,3.37
2022-11-05T13:21:43.334Z,3.30
2022-11-05T13:24:52.324Z,3.50
2022-11-05T13:27:57.845Z,2.90
2022-11-05T13:30:58.338Z,3.20
2022-11-05T13:33:44.873Z,2.87
2022-11-05T13:37:26.326Z,3.40
2022-11-05T13:40:18.327Z,3.43
2022-11-05T13:43:43.414Z,3.13
2022-11-05T13:47:15.337Z,2.80
2022-11-05T13:50:53.331Z,2.60
2022-11-05T13:53:50.038Z,2.50
2022-11-05T13:56:50.353Z,3.13
2022-11-05T14:00:07.320Z,3.10
2022-11-05T14:02:58.400Z,3.40
2022-11-05T14:05:48.334Z,2.80
2022-11-05T14:08:34.407Z,2.80
2022-11-05T14:11:46.329Z,2.97
2022-11-05T14:14:39.316Z,2.80
2022-11-05T14:18:00.354Z,3.03
2022-11-05T14:20:46.333Z,3.00
2022-11-05T14:23:39.243Z,3.47
2022-11-05T14:26:40.588Z,3.37
2022-11-05T14:29:23.609Z,4.30
2022-11-05T14:32:15.377Z,3.10
2022-11-05T14:35:07.339Z,2.80
2022-11-05T14:37:57.457Z,3.90
2022-11-05T14:40:50.351Z,3.90
2022-11-05T14:43:40.356Z,3.23
2022-11-05T14:46:27.341Z,3.47
2022-11-05T14:49:09.758Z,3.60
2022-11-05T14:52:01.368Z,3.70
2022-11-05T14:55:04.375Z,4.80
2022-11-05T14:57:52.998Z,4.93
2022-11-05T15:00:46.412Z,3.30
2022-11-05T15:03:47.106Z,3.50
2022-11-05T15:06:38.346Z,3.43
2022-11-05T15:09:28.540Z,3.87
2022-11-05T15:12:47.374Z,3.80
2022-11-05T15:15:45.402Z,4.00
2022-11-05T15:18:49.558Z,4.00
2022-11-05T15:21:42.373Z,4.17
2022-11-05T15:24:27.447Z,4.03
2022-11-05T15:27:25.471Z,3.97
2022-11-05T15:30:28.408Z,4.50
2022-11-05T15:33:20.708Z,4.67
2022-11-05T15:36:07.681Z,3.87
2022-11-05T15:39:15.271Z,4.60
2022-11-05T15:41:56.394Z,4.90
2022-11-05T15:44:54.610Z,5.73
2022-11-05T15:47:43.434Z,5.20
2022-11-05T15:50:29.436Z,4.23
2022-11-05T15:53:51.502Z,4.93
2022-11-05T15:57:02.429Z,3.87
2022-11-05T15:59:42.156Z,5.27
2022-11-05T16:02:36.579Z,4.87
2022-11-05T16:05:26.409Z,5.27
2022-11-05T16:08:06.124Z,5.87
2022-11-05T16:11:00.433Z,5.80
2022-11-05T16:13:41.663Z,5.63
2022-11-05T16:16:27.426Z,5.03
2022-11-05T16:19:40.724Z,6.30
2022-11-05T16:22:27.450Z,6.13
2022-11-05T16:25:48.531Z,6.50
2022-11-05T16:28:33.587Z,5.37
2022-11-05T16:31:20.417Z,5.03
2022-11-05T16:34:08.452Z,6.27
2022-11-05T16:36:54.410Z,5.13
2022-11-05T16:39:33.596Z,4.93
2022-11-05T16:42:28.429Z,6.40
2022-11-05T16:45:07.571Z,5.67
2022-11-05T16:47:53.419Z,4.80
2022-11-05T16:50:44.426Z,5.70
2022-11-05T16:53:24.310Z,7.07
2022-11-05T16:56:10.519Z,8.87
2022-11-05T16:58:50.409Z,8.53
2022-11-05T17:01:37.509Z,6.23
2022-11-05T17:04:17.081Z,6.30
2022-11-05T17:07:04.446Z,6.80
2022-11-05T17:09:44.385Z,7.03
2022-11-05T17:12:30.446Z,6.00
2022-11-05T17:15:19.268Z,6.40
2022-11-05T17:18:07.454Z,5.93
2022-11-05T17:21:00.450Z,6.50
2022-11-05T17:23:40.527Z,6.83
2022-11-05T17:26:26.493Z,7.33
2022-11-05T17:29:05.516Z,6.73
2022-11-05T17:31:51.461Z,7.07
2022-11-05T17:34:30.555Z,7.10
2022-11-05T17:37:16.440Z,10.67
2022-11-05T17:39:56.706Z,7.80
2022-11-05T17:42:42.423Z,6.97
2022-11-05T17:45:22.534Z,8.53
2022-11-05T17:48:09.467Z,7.17
2022-11-05T17:51:02.472Z,7.90
2022-11-05T17:53:43.677Z,7.50
2022-11-05T17:56:35.683Z,7.50
2022-11-05T17:59:17.147Z,7.47
2022-11-05T18:02:03.608Z,7.70
2022-11-05T18:04:43.250Z,8.17
2022-11-05T18:07:29.457Z,7.63
2022-11-05T18:10:09.750Z,7.90
2022-11-05T18:12:59.238Z,7.90
2022-11-05T18:15:40.271Z,5.13
2022-11-05T18:18:26.468Z,8.70
2022-11-05T18:21:12.463Z,7.93
2022-11-05T18:23:51.513Z,7.23
2022-11-05T18:26:38.461Z,7.60
2022-11-05T18:29:17.596Z,8.63
2022-11-05T18:32:03.467Z,8.37
2022-11-05T18:34:42.558Z,7.57
2022-11-05T18:37:28.483Z,8.07
2022-11-05T18:40:07.516Z,8.27
2022-11-05T18:42:53.465Z,8.47
2022-11-05T18:45:32.671Z,8.30
2022-11-05T18:48:18.445Z,8.60
2022-11-05T18:51:04.460Z,8.37
2022-11-05T18:53:44.253Z,8.83
2022-11-05T18:56:18.165Z,9.20
2022-11-05T18:58:45.282Z,8.27
2022-11-05T19:01:27.547Z,7.30
2022-11-05T19:03:56.365Z,7.77
2022-11-05T19:06:26.855Z,7.80
2022-11-05T19:08:55.895Z,8.97
2022-11-05T19:11:25.249Z,8.77
2022-11-05T19:13:52.080Z,8.73
2022-11-05T19:16:25.318Z,8.80
2022-11-05T19:18:52.058Z,6.87
2022-11-05T19:21:22.791Z,8.00
2022-11-05T19:23:50.370Z,8.87
2022-11-05T19:26:28.126Z,8.10
2022-11-05T19:28:58.576Z,8.17
2022-11-05T19:31:24.973Z,9.77
2022-11-05T19:33:52.551Z,8.20
2022-11-05T19:36:21.148Z,8.07
2022-11-05T19:39:01.020Z,10.23
2022-11-05T19:41:27.276Z,9.40
2022-11-05T19:43:54.623Z,9.97
2022-11-05T19:46:23.035Z,12.67
2022-11-05T19:48:49.993Z,12.33
2022-11-05T19:51:24.267Z,9.80
2022-11-05T19:53:51.988Z,8.97
2022-11-05T19:56:25.181Z,9.70
2022-11-05T19:58:52.961Z,10.37
2022-11-05T20:01:21.416Z,10.63
2022-11-05T20:03:48.286Z,10.53
2022-11-05T20:06:22.248Z,9.67
2022-11-05T20:09:15.146Z,9.53
2022-11-05T20:11:36.960Z,9.20
2022-11-05T20:14:04.653Z,9.97
2022-11-05T20:16:39.846Z,10.33
2022-11-05T20:19:13.281Z,10.57
2022-11-05T20:21:39.695Z,9.30
2022-11-05T20:24:06.927Z,11.03
2022-11-05T20:26:33.321Z,10.57
2022-11-05T20:28:59.652Z,10.03
2022-11-05T20:31:25.785Z,10.37
2022-11-05T20:33:52.595Z,10.37
2022-11-05T20:36:22.236Z,8.67
2022-11-05T20:38:50.949Z,11.90
2022-11-05T20:41:18.143Z,10.17
2022-11-05T20:43:44.684Z,10.10
2022-11-05T20:46:14.920Z,11.33
2022-11-05T20:48:43.354Z,10.87
2022-11-05T20:51:19.340Z,11.43
2022-11-05T20:53:45.830Z,10.87
2022-11-05T20:56:25.223Z,11.23
2022-11-05T20:58:52.133Z,10.73
2022-11-05T21:01:19.476Z,11.37
2022-11-05T21:03:47.120Z,11.43
2022-11-05T21:06:14.207Z,10.53
2022-11-05T21:08:41.024Z,10.63
2022-11-05T21:11:07.656Z,11.70
2022-11-05T21:13:35.075Z,12.47
2022-11-05T21:16:04.890Z,11.47
2022-11-05T21:18:34.445Z,9.63
2022-11-05T21:21:12.409Z,10.77
2022-11-05T21:23:38.623Z,11.53
2022-11-05T21:26:06.445Z,10.03
2022-11-05T21:28:33.570Z,12.20
2022-11-05T21:31:01.785Z,12.43
2022-11-05T21:33:28.453Z,13.43
2022-11-05T21:35:54.845Z,12.67
2022-11-05T21:38:21.470Z,12.37
2022-11-05T21:40:47.652Z,12.33
2022-11-05T21:43:14.532Z,12.13
2022-11-05T21:45:43.362Z,12.07
2022-11-05T21:48:11.187Z,10.70
2022-11-05T21:51:00.327Z,11.70
2022-11-05T21:53:45.316Z,12.83
2022-11-05T21:56:43.145Z,12.60
2022-11-05T21:59:32.408Z,12.73
2022-11-05T22:02:02.157Z,12.53
2022-11-05T22:04:35.615Z,12.83
2022-11-05T22:07:02.990Z,12.37
2022-11-05T22:09:29.341Z,12.80
2022-11-05T22:11:56.432Z,11.60
2022-11-05T22:14:23.310Z,12.43
2022-11-05T22:16:49.536Z,8.87
2022-11-05T22:19:15.874Z,12.40
2022-11-05T22:21:42.238Z,10.17
2022-11-05T22:24:09.480Z,12.07
2022-11-05T22:26:37.320Z,11.60
2022-11-05T22:29:05.363Z,12.07
2022-11-05T22:31:35.981Z,12.07
2022-11-05T22:34:04.556Z,11.83
2022-11-05T22:36:31.820Z,11.30
2022-11-05T22:38:58.059Z,11.27
2022-11-05T22:41:24.229Z,11.77
2022-11-05T22:43:50.558Z,10.97
2022-11-05T22:46:20.764Z,11.43
2022-11-05T22:48:48.353Z,11.80
2022-11-05T22:51:22.539Z,11.03
2022-11-05T22:53:49.224Z,10.67
2022-11-05T22:56:19.497Z,10.90
2022-11-05T22:58:46.724Z,11.53
2022-11-05T23:01:14.835Z,10.13
2022-11-05T23:03:43.942Z,9.87
2022-11-05T23:06:37.591Z,10.27
2022-11-05T23:09:34.891Z,9.70
2022-11-05T23:12:03.725Z,9.90
2022-11-05T23:14:30.309Z,9.27
2022-11-05T23:17:15.224Z,9.40
2022-11-05T23:20:00.286Z,10.60
2022-11-05T23:22:48.320Z,9.47
2022-11-05T23:25:20.048Z,9.63
2022-11-05T23:27:52.521Z,8.90
2022-11-05T23:30:25.810Z,8.77
2022-11-05T23:32:55.117Z,9.23
2022-11-05T23:35:41.252Z,8.77
2022-11-05T23:38:26.817Z,8.63
2022-11-05T23:41:11.473Z,8.73
2022-11-05T23:43:56.196Z,8.73
2022-11-05T23:46:40.859Z,8.57
2022-11-05T23:49:07.137Z,8.23
2022-11-05T23:51:33.264Z,6.90
2022-11-05T23:53:59.403Z,7.93
2022-11-05T23:56:25.534Z,7.53
2022-11-05T23:58:51.783Z,7.77
